sensor_id;sensor_type;location;lat;lon;timestamp;pressure;altitude;pressure_sealevel;temperature;humidity
9009;BME280;62813;51.424;6.762;2023-01-26T00:01:19;102306.84;;;-0.02;78.93
9009;BME280;62813;51.424;6.762;2023-01-26T00:03:46;102305.97;;;-0.04;79.44
9009;BME280;62813;51.424;6.762;2023-01-26T00:06:15;102292.38;;;-0.03;79.51
9009;BME280;62813;51.424;6.762;2023-01-26T00:08:45;102295.03;;;0.00;79.33
9009;BME280;62813;51.424;6.762;2023-01-26T00:11:14;102288.22;;;0.01;79.61
9009;BME280;62813;51.424;6.762;2023-01-26T00:13:42;102286.59;;;0.04;79.36
9009;BME280;62813;51.424;6.762;2023-01-26T00:16:13;102286.53;;;0.01;79.78
9009;BME280;62813;51.424;6.762;2023-01-26T00:18:40;102284.91;;;0.05;79.59
9009;BME280;62813;51.424;6.762;2023-01-26T00:21:11;102277.59;;;-0.15;80.39
9009;BME280;62813;51.424;6.762;2023-01-26T00:23:38;102279.78;;;-0.28;80.94
9009;BME280;62813;51.424;6.762;2023-01-26T00:26:05;102276.78;;;-0.44;81.77
9009;BME280;62813;51.424;6.762;2023-01-26T00:28:32;102272.72;;;-0.37;81.63
9009;BME280;62813;51.424;6.762;2023-01-26T00:31:07;102275.38;;;-0.34;81.54
9009;BME280;62813;51.424;6.762;2023-01-26T00:33:34;102276.41;;;-0.27;81.20
9009;BME280;62813;51.424;6.762;2023-01-26T00:36:00;102278.31;;;-0.20;81.29
9009;BME280;62813;51.424;6.762;2023-01-26T00:38:27;102275.81;;;-0.17;81.48
9009;BME280;62813;51.424;6.762;2023-01-26T00:40:54;102263.84;;;-0.20;81.36
9009;BME280;62813;51.424;6.762;2023-01-26T00:43:20;102260.38;;;-0.22;81.37
9009;BME280;62813;51.424;6.762;2023-01-26T00:45:47;102260.38;;;-0.22;81.42
9009;BME280;62813;51.424;6.762;2023-01-26T00:48:14;102257.88;;;-0.20;81.41
9009;BME280;62813;51.424;6.762;2023-01-26T00:50:41;102253.81;;;-0.14;81.78
9009;BME280;62813;51.424;6.762;2023-01-26T00:53:08;102247.41;;;-0.29;81.89
9009;BME280;62813;51.424;6.762;2023-01-26T00:55:35;102250.97;;;-0.24;82.25
9009;BME280;62813;51.424;6.762;2023-01-26T00:58:06;102249.00;;;-0.34;82.74
9009;BME280;62813;51.424;6.762;2023-01-26T01:00:35;102252.50;;;-0.29;82.19
9009;BME280;62813;51.424;6.762;2023-01-26T01:03:02;102250.78;;;-0.30;82.76
9009;BME280;62813;51.424;6.762;2023-01-26T01:05:30;102247.94;;;-0.41;83.38
9009;BME280;62813;51.424;6.762;2023-01-26T01:07:57;102248.72;;;-0.44;83.48
9009;BME280;62813;51.424;6.762;2023-01-26T01:10:24;102241.13;;;-0.42;83.60
9009;BME280;62813;51.424;6.762;2023-01-26T01:12:53;102245.59;;;-0.33;83.39
9009;BME280;62813;51.424;6.762;2023-01-26T01:15:19;102253.53;;;-0.23;83.29
9009;BME280;62813;51.424;6.762;2023-01-26T01:17:46;102241.81;;;-0.16;83.02
9009;BME280;62813;51.424;6.762;2023-01-26T01:20:14;102235.44;;;-0.32;83.16
9009;BME280;62813;51.424;6.762;2023-01-26T01:22:43;102238.00;;;-0.32;83.60
9009;BME280;62813;51.424;6.762;2023-01-26T01:25:10;102234.09;;;-0.19;83.34
9009;BME280;62813;51.424;6.762;2023-01-26T01:27:36;102227.25;;;-0.20;83.52
9009;BME280;62813;51.424;6.762;2023-01-26T01:30:03;102233.31;;;-0.17;83.68
9009;BME280;62813;51.424;6.762;2023-01-26T01:32:34;102220.56;;;-0.15;83.40
9009;BME280;62813;51.424;6.762;2023-01-26T01:35:01;102230.88;;;-0.12;83.69
9009;BME280;62813;51.424;6.762;2023-01-26T01:37:30;102227.53;;;-0.09;83.71
9009;BME280;62813;51.424;6.762;2023-01-26T01:39:58;102225.16;;;-0.03;83.46
9009;BME280;62813;51.424;6.762;2023-01-26T01:42:25;102231.06;;;-0.04;83.48
9009;BME280;62813;51.424;6.762;2023-01-26T01:47:46;102235.34;;;-0.03;83.56
9009;BME280;62813;51.424;6.762;2023-01-26T01:50:15;102239.75;;;0.02;83.72
9009;BME280;62813;51.424;6.762;2023-01-26T01:52:43;102230.34;;;-0.00;83.51
9009;BME280;62813;51.424;6.762;2023-01-26T01:55:12;102232.09;;;0.02;83.59
9009;BME280;62813;51.424;6.762;2023-01-26T01:57:47;102226.09;;;0.00;84.03
9009;BME280;62813;51.424;6.762;2023-01-26T02:00:19;102224.50;;;0.05;83.87
9009;BME280;62813;51.424;6.762;2023-01-26T02:02:50;102221.13;;;0.06;83.56
9009;BME280;62813;51.424;6.762;2023-01-26T02:05:42;102219.34;;;0.02;83.76
9009;BME280;62813;51.424;6.762;2023-01-26T02:08:12;102220.88;;;-0.04;84.25
9009;BME280;62813;51.424;6.762;2023-01-26T02:10:43;102218.44;;;0.00;83.79
9009;BME280;62813;51.424;6.762;2023-01-26T02:13:11;102207.47;;;0.04;83.84
9009;BME280;62813;51.424;6.762;2023-01-26T02:15:38;102206.69;;;0.07;84.00
9009;BME280;62813;51.424;6.762;2023-01-26T02:18:05;102201.63;;;0.08;83.86
9009;BME280;62813;51.424;6.762;2023-01-26T02:28:18;102197.59;;;0.18;84.02
9009;BME280;62813;51.424;6.762;2023-01-26T02:30:46;102189.03;;;0.14;83.79
9009;BME280;62813;51.424;6.762;2023-01-26T02:33:16;102195.75;;;0.12;84.23
9009;BME280;62813;51.424;6.762;2023-01-26T02:35:42;102189.78;;;0.12;84.47
9009;BME280;62813;51.424;6.762;2023-01-26T02:38:09;102199.06;;;0.08;84.10
9009;BME280;62813;51.424;6.762;2023-01-26T02:40:50;102197.47;;;0.13;84.08
9009;BME280;62813;51.424;6.762;2023-01-26T02:43:18;102199.13;;;0.11;83.91
9009;BME280;62813;51.424;6.762;2023-01-26T02:45:47;102194.91;;;0.12;84.00
9009;BME280;62813;51.424;6.762;2023-01-26T02:48:14;102197.53;;;0.15;83.92
9009;BME280;62813;51.424;6.762;2023-01-26T02:51:01;102197.47;;;0.13;84.18
9009;BME280;62813;51.424;6.762;2023-01-26T02:53:28;102192.53;;;0.20;83.76
9009;BME280;62813;51.424;6.762;2023-01-26T02:55:54;102182.25;;;0.17;83.40
9009;BME280;62813;51.424;6.762;2023-01-26T02:58:21;102179.59;;;0.13;84.10
9009;BME280;62813;51.424;6.762;2023-01-26T03:00:47;102168.63;;;0.16;83.83
9009;BME280;62813;51.424;6.762;2023-01-26T03:03:17;102164.34;;;0.15;83.71
9009;BME280;62813;51.424;6.762;2023-01-26T03:05:45;102172.06;;;0.18;83.93
9009;BME280;62813;51.424;6.762;2023-01-26T03:08:14;102166.94;;;0.17;84.23
9009;BME280;62813;51.424;6.762;2023-01-26T03:10:41;102172.97;;;0.20;83.95
9009;BME280;62813;51.424;6.762;2023-01-26T03:13:07;102177.22;;;0.20;83.76
9009;BME280;62813;51.424;6.762;2023-01-26T03:15:34;102173.81;;;0.21;83.88
9009;BME280;62813;51.424;6.762;2023-01-26T03:18:19;102174.63;;;0.18;83.65
9009;BME280;62813;51.424;6.762;2023-01-26T03:21:09;102172.03;;;0.17;83.51
9009;BME280;62813;51.424;6.762;2023-01-26T03:23:55;102164.41;;;0.18;83.81
9009;BME280;62813;51.424;6.762;2023-01-26T03:26:40;102175.44;;;0.16;83.69
9009;BME280;62813;51.424;6.762;2023-01-26T03:29:25;102175.50;;;0.19;83.57
9009;BME280;62813;51.424;6.762;2023-01-26T03:31:55;102176.38;;;0.21;83.50
9009;BME280;62813;51.424;6.762;2023-01-26T03:34:22;102178.94;;;0.21;83.80
9009;BME280;62813;51.424;6.762;2023-01-26T03:36:48;102176.44;;;0.22;83.63
9009;BME280;62813;51.424;6.762;2023-01-26T03:39:15;102185.78;;;0.22;83.70
9009;BME280;62813;51.424;6.762;2023-01-26T03:42:03;102175.63;;;0.25;83.61
9009;BME280;62813;51.424;6.762;2023-01-26T03:44:49;102175.63;;;0.25;83.61
9009;BME280;62813;51.424;6.762;2023-01-26T03:47:34;102175.63;;;0.25;83.79
9009;BME280;62813;51.424;6.762;2023-01-26T03:50:20;102176.47;;;0.24;83.65
9009;BME280;62813;51.424;6.762;2023-01-26T03:53:17;102178.06;;;0.20;83.38
9009;BME280;62813;51.424;6.762;2023-01-26T03:56:04;102169.56;;;0.20;83.79
9009;BME280;62813;51.424;6.762;2023-01-26T03:58:59;102169.63;;;0.23;84.34
9009;BME280;62813;51.424;6.762;2023-01-26T04:01:38;102165.38;;;0.22;84.68
9009;BME280;62813;51.424;6.762;2023-01-26T04:04:07;102160.25;;;0.22;84.63
9009;BME280;62813;51.424;6.762;2023-01-26T04:06:52;102158.66;;;0.27;84.58
9009;BME280;62813;51.424;6.762;2023-01-26T04:09:38;102150.94;;;0.24;84.51
9009;BME280;62813;51.424;6.762;2023-01-26T04:12:07;102150.09;;;0.25;84.87
9009;BME280;62813;51.424;6.762;2023-01-26T04:14:35;102151.00;;;0.27;85.11
9009;BME280;62813;51.424;6.762;2023-01-26T04:17:21;102150.81;;;0.19;85.49
9009;BME280;62813;51.424;6.762;2023-01-26T04:20:06;102155.16;;;0.22;85.50
9009;BME280;62813;51.424;6.762;2023-01-26T04:22:51;102143.28;;;0.24;85.40
9009;BME280;62813;51.424;6.762;2023-01-26T04:25:20;102150.22;;;0.29;85.49
9009;BME280;62813;51.424;6.762;2023-01-26T04:27:46;102147.63;;;0.28;85.16
9009;BME280;62813;51.424;6.762;2023-01-26T04:30:14;102150.19;;;0.28;85.47
9009;BME280;62813;51.424;6.762;2023-01-26T04:32:41;102151.91;;;0.29;85.53
9009;BME280;62813;51.424;6.762;2023-01-26T04:35:09;102153.63;;;0.30;85.15
9009;BME280;62813;51.424;6.762;2023-01-26T04:37:36;102155.34;;;0.31;85.23
9009;BME280;62813;51.424;6.762;2023-01-26T04:40:05;102149.44;;;0.33;85.26
9009;BME280;62813;51.424;6.762;2023-01-26T04:42:33;102152.00;;;0.33;85.11
9009;BME280;62813;51.424;6.762;2023-01-26T04:45:00;102141.78;;;0.33;85.47
9009;BME280;62813;51.424;6.762;2023-01-26T04:47:26;102157.16;;;0.35;85.38
9009;BME280;62813;51.424;6.762;2023-01-26T04:49:54;102151.22;;;0.36;85.61
9009;BME280;62813;51.424;6.762;2023-01-26T04:52:21;102147.81;;;0.35;85.28
9009;BME280;62813;51.424;6.762;2023-01-26T04:54:48;102147.88;;;0.38;85.38
9009;BME280;62813;51.424;6.762;2023-01-26T04:57:14;102153.81;;;0.37;85.22
9009;BME280;62813;51.424;6.762;2023-01-26T04:59:41;102155.47;;;0.35;85.18
9009;BME280;62813;51.424;6.762;2023-01-26T05:02:08;102160.53;;;0.34;85.39
9009;BME280;62813;51.424;6.762;2023-01-26T05:04:34;102155.47;;;0.35;85.41
9009;BME280;62813;51.424;6.762;2023-01-26T05:07:01;102158.06;;;0.37;85.18
9009;BME280;62813;51.424;6.762;2023-01-26T05:09:28;102158.91;;;0.36;85.25
9009;BME280;62813;51.424;6.762;2023-01-26T05:11:54;102142.66;;;0.34;85.37
9009;BME280;62813;51.424;6.762;2023-01-26T05:14:41;102144.34;;;0.33;85.00
9009;BME280;62813;51.424;6.762;2023-01-26T05:17:08;102145.84;;;0.25;85.50
9009;BME280;62813;51.424;6.762;2023-01-26T05:19:34;102143.34;;;0.27;85.38
9009;BME280;62813;51.424;6.762;2023-01-26T05:22:01;102140.88;;;0.30;85.61
9009;BME280;62813;51.424;6.762;2023-01-26T05:24:27;102145.16;;;0.31;85.22
9009;BME280;62813;51.424;6.762;2023-01-26T05:26:54;102152.81;;;0.31;85.63
9009;BME280;62813;51.424;6.762;2023-01-26T05:29:40;102153.59;;;0.28;86.06
9009;BME280;62813;51.424;6.762;2023-01-26T05:32:07;102152.75;;;0.28;85.83
9009;BME280;62813;51.424;6.762;2023-01-26T05:34:33;102151.91;;;0.29;86.04
9009;BME280;62813;51.424;6.762;2023-01-26T05:37:00;102148.53;;;0.30;85.85
9009;BME280;62813;51.424;6.762;2023-01-26T05:39:27;102160.41;;;0.28;85.81
9009;BME280;62813;51.424;6.762;2023-01-26T05:41:53;102163.69;;;0.24;85.70
9009;BME280;62813;51.424;6.762;2023-01-26T05:44:22;102166.16;;;0.21;85.71
9009;BME280;62813;51.424;6.762;2023-01-26T05:46:52;102166.13;;;0.19;85.90
9009;BME280;62813;51.424;6.762;2023-01-26T05:49:18;102162.72;;;0.19;86.01
9009;BME280;62813;51.424;6.762;2023-01-26T05:51:45;102159.31;;;0.18;86.22
9009;BME280;62813;51.424;6.762;2023-01-26T05:54:12;102161.81;;;0.17;86.24
9009;BME280;62813;51.424;6.762;2023-01-26T05:56:38;102156.72;;;0.17;86.33
9009;BME280;62813;51.424;6.762;2023-01-26T05:59:05;102161.06;;;0.21;86.20
9009;BME280;62813;51.424;6.762;2023-01-26T06:01:31;102161.06;;;0.21;86.16
9009;BME280;62813;51.424;6.762;2023-01-26T06:03:58;102161.19;;;0.25;86.57
9009;BME280;62813;51.424;6.762;2023-01-26T06:06:24;102164.59;;;0.26;86.46
9009;BME280;62813;51.424;6.762;2023-01-26T06:08:51;102171.50;;;0.30;86.55
9009;BME280;62813;51.424;6.762;2023-01-26T06:11:17;102154.56;;;0.33;86.38
9009;BME280;62813;51.424;6.762;2023-01-26T06:13:44;102153.78;;;0.36;86.57
9009;BME280;62813;51.424;6.762;2023-01-26T06:16:11;102154.72;;;0.41;86.88
9009;BME280;62813;51.424;6.762;2023-01-26T06:18:37;102157.38;;;0.44;86.33
9009;BME280;62813;51.424;6.762;2023-01-26T06:21:04;102159.03;;;0.42;86.27
9009;BME280;62813;51.424;6.762;2023-01-26T06:23:30;102159.91;;;0.42;86.54
9009;BME280;62813;51.424;6.762;2023-01-26T06:26:00;102159.03;;;0.42;86.52
9009;BME280;62813;51.424;6.762;2023-01-26T06:28:29;102160.81;;;0.46;86.82
9009;BME280;62813;51.424;6.762;2023-01-26T06:30:59;102157.44;;;0.47;86.67
9009;BME280;62813;51.424;6.762;2023-01-26T06:33:26;102164.22;;;0.45;86.88
9009;BME280;62813;51.424;6.762;2023-01-26T06:35:52;102162.53;;;0.47;87.07
9009;BME280;62813;51.424;6.762;2023-01-26T06:38:20;102157.53;;;0.50;86.97
9009;BME280;62813;51.424;6.762;2023-01-26T06:40:47;102160.09;;;0.52;86.99
9009;BME280;62813;51.424;6.762;2023-01-26T06:43:15;102161.84;;;0.54;86.78
9009;BME280;62813;51.424;6.762;2023-01-26T06:45:42;102161.78;;;0.50;86.85
9009;BME280;62813;51.424;6.762;2023-01-26T06:48:09;102172.84;;;0.50;86.84
9009;BME280;62813;51.424;6.762;2023-01-26T06:50:35;102171.19;;;0.52;87.05
9009;BME280;62813;51.424;6.762;2023-01-26T06:53:03;102168.66;;;0.54;87.07
9009;BME280;62813;51.424;6.762;2023-01-26T06:55:50;102166.97;;;0.54;87.06
9009;BME280;62813;51.424;6.762;2023-01-26T06:58:17;102173.75;;;0.54;87.05
9009;BME280;62813;51.424;6.762;2023-01-26T07:00:43;102164.44;;;0.56;87.06
9009;BME280;62813;51.424;6.762;2023-01-26T07:03:10;102167.91;;;0.58;87.04
9009;BME280;62813;51.424;6.762;2023-01-26T07:05:37;102173.19;;;0.65;87.49
9009;BME280;62813;51.424;6.762;2023-01-26T07:08:03;102166.53;;;0.72;87.63
9009;BME280;62813;51.424;6.762;2023-01-26T07:10:34;102159.03;;;0.81;87.88
9009;BME280;62813;51.424;6.762;2023-01-26T07:13:02;102166.13;;;0.93;88.31
9009;BME280;62813;51.424;6.762;2023-01-26T07:15:29;102165.41;;;0.99;88.41
9009;BME280;62813;51.424;6.762;2023-01-26T07:17:58;102170.66;;;1.06;88.52
9009;BME280;62813;51.424;6.762;2023-01-26T07:20:25;102170.81;;;1.14;88.50
9009;BME280;62813;51.424;6.762;2023-01-26T07:22:52;102157.22;;;1.16;88.47
9009;BME280;62813;51.424;6.762;2023-01-26T07:25:18;102167.56;;;1.21;88.48
9009;BME280;62813;51.424;6.762;2023-01-26T07:27:45;102166.72;;;1.22;88.45
9009;BME280;62813;51.424;6.762;2023-01-26T07:30:12;102174.41;;;1.23;88.35
9009;BME280;62813;51.424;6.762;2023-01-26T07:32:41;102171.03;;;1.24;87.97
9009;BME280;62813;51.424;6.762;2023-01-26T07:35:08;102170.97;;;1.21;87.65
9009;BME280;62813;51.424;6.762;2023-01-26T07:37:34;102166.63;;;1.17;87.45
9009;BME280;62813;51.424;6.762;2023-01-26T07:40:01;102172.56;;;1.16;87.76
9009;BME280;62813;51.424;6.762;2023-01-26T07:42:28;102171.75;;;1.19;87.55
9009;BME280;62813;51.424;6.762;2023-01-26T07:44:56;102174.38;;;1.20;87.54
9009;BME280;62813;51.424;6.762;2023-01-26T07:47:23;102172.75;;;1.25;87.75
9009;BME280;62813;51.424;6.762;2023-01-26T07:49:49;102171.03;;;1.26;87.14
9009;BME280;62813;51.424;6.762;2023-01-26T07:52:16;102166.81;;;1.27;87.17
9009;BME280;62813;51.424;6.762;2023-01-26T07:54:42;102168.47;;;1.24;87.06
9009;BME280;62813;51.424;6.762;2023-01-26T07:57:11;102171.81;;;1.20;86.77
9009;BME280;62813;51.424;6.762;2023-01-26T07:59:37;102176.00;;;1.18;86.46
9009;BME280;62813;51.424;6.762;2023-01-26T08:02:04;102173.50;;;1.20;86.79
9009;BME280;62813;51.424;6.762;2023-01-26T08:04:30;102176.97;;;1.23;87.00
9009;BME280;62813;51.424;6.762;2023-01-26T08:06:57;102180.38;;;1.22;86.48
9009;BME280;62813;51.424;6.762;2023-01-26T08:09:24;102176.94;;;1.22;86.40
9009;BME280;62813;51.424;6.762;2023-01-26T08:11:51;102178.69;;;1.23;86.30
9009;BME280;62813;51.424;6.762;2023-01-26T08:14:18;102178.69;;;1.24;86.49
9009;BME280;62813;51.424;6.762;2023-01-26T08:16:44;102183.78;;;1.23;85.97
9009;BME280;62813;51.424;6.762;2023-01-26T08:19:11;102190.44;;;1.15;85.39
9009;BME280;62813;51.424;6.762;2023-01-26T08:21:38;102191.91;;;1.04;85.47
9009;BME280;62813;51.424;6.762;2023-01-26T08:24:05;102191.59;;;0.90;85.25
9009;BME280;62813;51.424;6.762;2023-01-26T08:26:32;102191.72;;;0.94;84.96
9009;BME280;62813;51.424;6.762;2023-01-26T08:28:59;102195.16;;;0.96;85.08
9009;BME280;62813;51.424;6.762;2023-01-26T08:31:25;102191.84;;;1.01;85.20
9009;BME280;62813;51.424;6.762;2023-01-26T08:33:54;102205.31;;;0.92;85.17
9009;BME280;62813;51.424;6.762;2023-01-26T08:36:21;102199.38;;;0.93;85.48
9009;BME280;62813;51.424;6.762;2023-01-26T08:38:50;102201.09;;;0.94;85.47
9009;BME280;62813;51.424;6.762;2023-01-26T08:41:17;102191.75;;;0.96;86.34
9009;BME280;62813;51.424;6.762;2023-01-26T08:43:44;102191.00;;;1.00;86.13
9009;BME280;62813;51.424;6.762;2023-01-26T08:46:11;102198.53;;;0.94;85.67
9009;BME280;62813;51.424;6.762;2023-01-26T08:48:37;102194.28;;;0.96;86.08
9009;BME280;62813;51.424;6.762;2023-01-26T08:51:06;102199.50;;;0.99;85.71
9009;BME280;62813;51.424;6.762;2023-01-26T08:53:33;102197.75;;;0.98;85.86
9009;BME280;62813;51.424;6.762;2023-01-26T08:56:04;102204.53;;;0.96;85.62
9009;BME280;62813;51.424;6.762;2023-01-26T08:58:32;102198.56;;;0.97;85.87
9009;BME280;62813;51.424;6.762;2023-01-26T09:01:03;102206.25;;;0.97;85.78
9009;BME280;62813;51.424;6.762;2023-01-26T09:03:30;102206.06;;;0.88;86.35
9009;BME280;62813;51.424;6.762;2023-01-26T09:06:01;102202.69;;;0.90;86.25
9009;BME280;62813;51.424;6.762;2023-01-26T09:08:29;102212.06;;;0.90;86.34
9009;BME280;62813;51.424;6.762;2023-01-26T09:10:56;102212.06;;;0.90;86.32
9009;BME280;62813;51.424;6.762;2023-01-26T09:13:23;102212.88;;;0.87;86.50
9009;BME280;62813;51.424;6.762;2023-01-26T09:15:50;102216.31;;;0.89;86.64
9009;BME280;62813;51.424;6.762;2023-01-26T09:18:17;102217.13;;;0.88;86.82
9009;BME280;62813;51.424;6.762;2023-01-26T09:20:44;102216.25;;;0.86;86.91
9009;BME280;62813;51.424;6.762;2023-01-26T09:23:10;102217.09;;;0.85;86.88
9009;BME280;62813;51.424;6.762;2023-01-26T09:25:40;102220.53;;;0.87;87.19
9009;BME280;62813;51.424;6.762;2023-01-26T09:28:06;102210.34;;;0.89;87.10
9009;BME280;62813;51.424;6.762;2023-01-26T09:30:33;102211.16;;;0.88;86.98
9009;BME280;62813;51.424;6.762;2023-01-26T09:33:01;102214.63;;;0.90;87.19
9009;BME280;62813;51.424;6.762;2023-01-26T09:35:29;102222.38;;;0.93;87.23
9009;BME280;62813;51.424;6.762;2023-01-26T09:37:55;102211.34;;;0.95;87.22
9009;BME280;62813;51.424;6.762;2023-01-26T09:43:34;102220.94;;;1.06;87.43
9009;BME280;62813;51.424;6.762;2023-01-26T09:46:14;102218.34;;;1.04;87.59
9009;BME280;62813;51.424;6.762;2023-01-26T09:48:46;102226.09;;;1.07;87.73
9009;BME280;62813;51.424;6.762;2023-01-26T09:51:21;102226.13;;;1.09;87.59
9009;BME280;62813;51.424;6.762;2023-01-26T09:53:54;102217.59;;;1.10;87.73
9009;BME280;62813;51.424;6.762;2023-01-26T09:56:26;102217.59;;;1.10;87.98
9009;BME280;62813;51.424;6.762;2023-01-26T09:59:17;102224.28;;;1.03;87.58
9009;BME280;62813;51.424;6.762;2023-01-26T10:02:12;102218.34;;;1.04;87.83
9009;BME280;62813;51.424;6.762;2023-01-26T10:04:42;102218.38;;;1.06;87.87
9009;BME280;62813;51.424;6.762;2023-01-26T10:07:12;102221.88;;;1.09;88.11
9009;BME280;62813;51.424;6.762;2023-01-26T10:09:42;102220.13;;;1.08;87.85
9009;BME280;62813;51.424;6.762;2023-01-26T10:12:18;102218.41;;;1.07;87.91
9009;BME280;62813;51.424;6.762;2023-01-26T10:14:58;102225.16;;;1.05;88.27
9009;BME280;62813;51.424;6.762;2023-01-26T10:17:33;102219.28;;;1.08;88.40
9009;BME280;62813;51.424;6.762;2023-01-26T10:20:08;102209.91;;;1.08;87.95
9009;BME280;62813;51.424;6.762;2023-01-26T10:22:44;102208.38;;;1.16;88.32
9009;BME280;62813;51.424;6.762;2023-01-26T10:25:20;102208.47;;;1.19;87.64
9009;BME280;62813;51.424;6.762;2023-01-26T10:27:51;102200.81;;;1.21;87.85
9009;BME280;62813;51.424;6.762;2023-01-26T10:30:18;102200.06;;;1.27;87.76
9009;BME280;62813;51.424;6.762;2023-01-26T10:32:49;102194.16;;;1.29;88.00
9009;BME280;62813;51.424;6.762;2023-01-26T10:35:22;102198.41;;;1.29;88.30
9009;BME280;62813;51.424;6.762;2023-01-26T10:37:50;102194.31;;;1.38;87.70
9009;BME280;62813;51.424;6.762;2023-01-26T10:40:19;102188.47;;;1.44;87.80
9009;BME280;62813;51.424;6.762;2023-01-26T10:42:57;102189.34;;;1.44;88.08
9009;BME280;62813;51.424;6.762;2023-01-26T10:45:30;102186.78;;;1.44;87.94
9009;BME280;62813;51.424;6.762;2023-01-26T10:48:20;102184.13;;;1.40;87.91
9009;BME280;62813;51.424;6.762;2023-01-26T10:50:49;102180.75;;;1.41;87.71
9009;BME280;62813;51.424;6.762;2023-01-26T10:53:24;102180.66;;;1.36;87.97
9009;BME280;62813;51.424;6.762;2023-01-26T10:56:04;102187.34;;;1.31;88.17
9009;BME280;62813;51.424;6.762;2023-01-26T10:58:53;102189.84;;;1.27;87.77
9009;BME280;62813;51.424;6.762;2023-01-26T11:01:20;102174.53;;;1.30;88.29
9009;BME280;62813;51.424;6.762;2023-01-26T11:04:05;102183.91;;;1.29;87.89
9009;BME280;62813;51.424;6.762;2023-01-26T11:06:33;102179.63;;;1.27;88.37
9009;BME280;62813;51.424;6.762;2023-01-26T11:11:40;102176.25;;;1.31;88.39
9009;BME280;62813;51.424;6.762;2023-01-26T11:14:16;102186.56;;;1.34;88.51
9009;BME280;62813;51.424;6.762;2023-01-26T11:16:47;102177.25;;;1.37;88.61
9009;BME280;62813;51.424;6.762;2023-01-26T11:21:58;102172.13;;;1.36;88.71
9009;BME280;62813;51.424;6.762;2023-01-26T11:24:45;102174.75;;;1.40;88.47
9009;BME280;62813;51.424;6.762;2023-01-26T11:27:25;102181.63;;;1.43;88.34
9009;BME280;62813;51.424;6.762;2023-01-26T11:35:47;102175.84;;;1.53;88.63
9009;BME280;62813;51.424;6.762;2023-01-26T11:49:30;102169.88;;;1.54;88.88
9009;BME280;62813;51.424;6.762;2023-01-26T11:52:10;102165.47;;;1.45;89.01
9009;BME280;62813;51.424;6.762;2023-01-26T11:57:45;102146.78;;;1.49;89.25
9009;BME280;62813;51.424;6.762;2023-01-26T12:00:22;102154.50;;;1.51;89.22
9009;BME280;62813;51.424;6.762;2023-01-26T12:03:02;102148.53;;;1.52;89.33
9009;BME280;62813;51.424;6.762;2023-01-26T12:05:53;102153.66;;;1.53;89.48
9009;BME280;62813;51.424;6.762;2023-01-26T12:08:28;102150.28;;;1.55;89.48
9009;BME280;62813;51.424;6.762;2023-01-26T12:11:14;102145.16;;;1.55;89.36
9009;BME280;62813;51.424;6.762;2023-01-26T12:16:29;102146.09;;;1.58;89.69
9009;BME280;62813;51.424;6.762;2023-01-26T12:19:08;102139.25;;;1.57;90.00
9009;BME280;62813;51.424;6.762;2023-01-26T12:21:41;102135.88;;;1.60;89.74
9009;BME280;62813;51.424;6.762;2023-01-26T12:24:16;102125.63;;;1.58;89.82
9009;BME280;62813;51.424;6.762;2023-01-26T12:27:15;102120.53;;;1.60;89.73
9009;BME280;62813;51.424;6.762;2023-01-26T12:29:50;102124.75;;;1.56;90.29
9009;BME280;62813;51.424;6.762;2023-01-26T12:32:18;102122.22;;;1.59;90.33
9009;BME280;62813;51.424;6.762;2023-01-26T12:34:45;102112.84;;;1.60;90.04
9009;BME280;62813;51.424;6.762;2023-01-26T12:40:11;102119.69;;;1.61;89.94
9009;BME280;62813;51.424;6.762;2023-01-26T12:42:47;102115.22;;;1.49;90.37
9009;BME280;62813;51.424;6.762;2023-01-26T12:45:19;102110.00;;;1.44;90.66
9009;BME280;62813;51.424;6.762;2023-01-26T12:47:50;102114.28;;;1.45;91.05
9009;BME280;62813;51.424;6.762;2023-01-26T12:53:23;102107.44;;;1.43;91.70
9009;BME280;62813;51.424;6.762;2023-01-26T12:56:06;102110.03;;;1.46;91.53
9009;BME280;62813;51.424;6.762;2023-01-26T12:58:41;102106.59;;;1.44;91.48
9009;BME280;62813;51.424;6.762;2023-01-26T13:01:15;102110.03;;;1.46;91.06
9009;BME280;62813;51.424;6.762;2023-01-26T13:03:44;102105.66;;;1.40;91.85
9009;BME280;62813;51.424;6.762;2023-01-26T13:22:36;102095.41;;;1.39;92.72
9009;BME280;62813;51.424;6.762;2023-01-26T13:25:16;102092.75;;;1.33;93.24
9009;BME280;62813;51.424;6.762;2023-01-26T13:27:45;102093.59;;;1.33;93.58
9009;BME280;62813;51.424;6.762;2023-01-26T13:35:17;102085.97;;;1.35;93.89
9009;BME280;62813;51.424;6.762;2023-01-26T13:37:51;102090.38;;;1.42;93.89
9009;BME280;62813;51.424;6.762;2023-01-26T13:40:27;102092.94;;;1.43;94.22
9009;BME280;62813;51.424;6.762;2023-01-26T13:48:53;102089.78;;;1.57;94.57
9009;BME280;62813;51.424;6.762;2023-01-26T13:51:23;102080.44;;;1.60;94.67
9009;BME280;62813;51.424;6.762;2023-01-26T13:54:05;102083.09;;;1.66;94.48
9009;BME280;62813;51.424;6.762;2023-01-26T13:56:35;102087.44;;;1.69;94.43
9009;BME280;62813;51.424;6.762;2023-01-26T13:59:15;102084.88;;;1.70;94.30
9009;BME280;62813;51.424;6.762;2023-01-26T14:01:48;102090.88;;;1.72;94.65
9009;BME280;62813;51.424;6.762;2023-01-26T14:04:20;102086.59;;;1.71;94.72
9009;BME280;62813;51.424;6.762;2023-01-26T14:06:51;102086.75;;;1.80;95.03
9009;BME280;62813;51.424;6.762;2023-01-26T14:09:20;102087.63;;;1.83;95.16
9009;BME280;62813;51.424;6.762;2023-01-26T14:11:55;102083.47;;;1.88;95.07
9009;BME280;62813;51.424;6.762;2023-01-26T14:14:28;102085.97;;;1.83;95.22
9009;BME280;62813;51.424;6.762;2023-01-26T14:16:57;102081.72;;;1.87;95.31
9009;BME280;62813;51.424;6.762;2023-01-26T14:19:25;102069.03;;;1.91;95.50
9009;BME280;62813;51.424;6.762;2023-01-26T14:21:57;102080.16;;;1.95;95.51
9009;BME280;62813;51.424;6.762;2023-01-26T14:24:36;102084.59;;;2.05;96.15
9009;BME280;62813;51.424;6.762;2023-01-26T14:27:14;102090.59;;;2.07;96.31
9009;BME280;62813;51.424;6.762;2023-01-26T14:29:46;102083.84;;;2.12;96.05
9009;BME280;62813;51.424;6.762;2023-01-26T14:32:15;102083.06;;;2.18;96.05
9009;BME280;62813;51.424;6.762;2023-01-26T14:34:56;102084.88;;;2.25;96.36
9009;BME280;62813;51.424;6.762;2023-01-26T14:37:24;102085.91;;;2.36;96.11
9009;BME280;62813;51.424;6.762;2023-01-26T14:40:21;102079.13;;;2.40;96.51
9009;BME280;62813;51.424;6.762;2023-01-26T14:42:50;102082.56;;;2.42;96.38
9009;BME280;62813;51.424;6.762;2023-01-26T14:45:25;102092.91;;;2.48;97.15